Terminal Aerodrome Forecast
Issued by NWS Portland, OR

Home | Current Version | Previous Version | Text Only | Print | Product List | Glossary On
Versions: 1 2 3 4 5 6 7 8 9 10 11 12 13 14 15 16 17 18 19
000
FTUS46 KPQR 282332
TAFAST
TAF
KAST 282332Z 2900/2924 20016G26KT P6SM -RA SCT018 OVC035
     FM290200 19014G24KT 6SM -RA BKN018 OVC030
     FM290500 18014G22KT 5SM RA BR SCT009 OVC018
     FM290900 20018G28KT 6SM -RA SCT009 BKN015 OVC025
     FM291200 22015G25KT P6SM -SHRA SCT015 BKN025 OVC040
     FM291800 24012KT P6SM -SHRA SCT020 BKN035 BKN050=

USA.gov is the U.S. government's official web portal to all federal, state and local government web resources and services.